Time;durP1;ratioP1;P1;durP2;ratioP2;P2;SDS_P1;SDS_P2;PMS_P1;PMS_P2;Temp;Humidity;BMP_temperature;BMP_pressure;BME280_temperature;BME280_humidity;BME280_pressure;Samples;Min_cycle;Max_cycle;Signal;HPM_P1;HPM_P2
2022/12/09 00:00:33;;;;;;;17.77;12.60;;;0.60;99.90;;;;;;5053110;28;20237;-44
2022/12/09 00:02:59;;;;;;;19.03;12.90;;;0.50;99.90;;;;;;5053560;28;20183;-44
2022/12/09 00:05:25;;;;;;;20.37;13.27;;;0.50;99.90;;;;;;5053544;28;20764;-43
2022/12/09 00:07:50;;;;;;;18.83;12.03;;;0.50;99.90;;;;;;5053748;28;20782;-45
2022/12/09 00:10:16;;;;;;;19.30;13.37;;;0.50;99.90;;;;;;5053418;28;20195;-44
2022/12/09 00:12:41;;;;;;;21.50;14.07;;;0.40;99.90;;;;;;5053740;28;20230;-44
2022/12/09 00:15:07;;;;;;;21.07;14.40;;;0.30;99.90;;;;;;5053244;28;20177;-43
2022/12/09 00:17:33;;;;;;;19.53;12.30;;;0.30;99.90;;;;;;5055367;28;20184;-42
2022/12/09 00:19:59;;;;;;;18.87;13.50;;;0.20;99.90;;;;;;5057988;28;20221;-43
2022/12/09 00:22:28;;;;;;;19.83;12.23;;;0.20;99.90;;;;;;5059716;28;20547;-41
2022/12/09 00:24:53;;;;;;;18.43;12.43;;;0.20;99.90;;;;;;5071067;28;20210;-44
2022/12/09 00:27:19;;;;;;;16.93;11.77;;;0.10;99.90;;;;;;5071420;28;20190;-44
2022/12/09 00:29:45;;;;;;;19.00;12.60;;;0.10;99.90;;;;;;5057358;28;20260;-43
2022/12/09 00:32:10;;;;;;;21.53;13.03;;;0.00;99.90;;;;;;5055889;28;20180;-44
2022/12/09 00:34:36;;;;;;;21.37;12.70;;;0.00;99.90;;;;;;5057094;28;20180;-43
2022/12/09 00:37:01;;;;;;;20.43;12.93;;;0.00;99.90;;;;;;5057102;28;20656;-43
2022/12/09 00:39:27;;;;;;;21.50;12.87;;;-0.10;99.90;;;;;;5056791;28;20208;-42
2022/12/09 00:41:52;;;;;;;20.17;13.53;;;-0.10;99.90;;;;;;5057063;28;20187;-42
2022/12/09 00:44:18;;;;;;;21.53;13.33;;;-0.10;99.90;;;;;;5056683;28;20184;-43
2022/12/09 00:46:44;;;;;;;22.43;13.90;;;-0.10;99.90;;;;;;5056573;28;20232;-43
2022/12/09 00:49:10;;;;;;;19.67;12.73;;;-0.20;99.90;;;;;;5056805;28;20558;-45
2022/12/09 00:51:36;;;;;;;22.57;13.67;;;-0.20;99.90;;;;;;5056545;28;20265;-43
2022/12/09 00:54:01;;;;;;;23.23;13.60;;;-0.20;99.90;;;;;;5056686;28;20433;-44
2022/12/09 00:56:28;;;;;;;20.80;13.27;;;-0.30;99.90;;;;;;5056188;28;20598;-42
2022/12/09 00:58:56;;;;;;;19.50;12.77;;;-0.20;99.90;;;;;;5057089;28;20259;-43
2022/12/09 01:01:22;;;;;;;18.00;12.13;;;-0.30;99.90;;;;;;5057544;28;20418;-43
2022/12/09 01:03:47;;;;;;;18.90;11.87;;;-0.30;99.90;;;;;;5055244;28;20472;-43
2022/12/09 01:06:19;;;;;;;23.10;12.50;;;-0.30;99.90;;;;;;5056248;28;20214;-43
2022/12/09 01:08:45;;;;;;;20.47;13.47;;;-0.40;99.90;;;;;;5056370;28;20194;-44
2022/12/09 01:11:23;;;;;;;23.20;13.30;;;-0.40;99.90;;;;;;5056334;28;20186;-43
2022/12/09 01:13:49;;;;;;;22.40;12.50;;;-0.40;99.90;;;;;;5056977;28;20257;-44
2022/12/09 01:16:23;;;;;;;21.60;13.67;;;-0.50;99.90;;;;;;5055104;28;20432;-42
2022/12/09 01:18:50;;;;;;;19.73;13.03;;;-0.50;99.90;;;;;;5055042;28;20435;-42
2022/12/09 01:21:16;;;;;;;21.00;12.57;;;-0.50;99.90;;;;;;5056097;28;20418;-43
2022/12/09 01:23:42;;;;;;;24.63;12.27;;;-0.60;99.90;;;;;;5055532;28;20979;-42
2022/12/09 01:26:08;;;;;;;22.27;12.33;;;-0.60;99.90;;;;;;5054284;28;20674;-45
2022/12/09 01:28:36;;;;;;;17.77;13.20;;;-0.60;99.90;;;;;;5020579;28;20958;-43
2022/12/09 01:31:11;;;;;;;22.30;12.97;;;-0.60;99.90;;;;;;5055632;28;20421;-43
2022/12/09 01:33:37;;;;;;;20.87;12.97;;;-0.60;99.90;;;;;;5038160;28;20503;-44
2022/12/09 01:36:08;;;;;;;20.00;13.03;;;-0.60;99.90;;;;;;5055411;28;20424;-43
2022/12/09 01:38:34;;;;;;;19.40;12.00;;;-0.60;99.90;;;;;;5055605;28;20288;-46
2022/12/09 01:40:59;;;;;;;21.63;13.57;;;-0.60;99.90;;;;;;5055781;28;20418;-44
2022/12/09 01:43:25;;;;;;;20.67;13.50;;;-0.70;99.90;;;;;;5055607;28;20426;-44
2022/12/09 01:45:51;;;;;;;21.67;12.40;;;-0.60;99.90;;;;;;5053887;28;20219;-44
2022/12/09 01:48:23;;;;;;;22.53;13.33;;;-0.70;99.90;;;;;;5055820;28;20745;-43
2022/12/09 01:50:56;;;;;;;20.13;12.57;;;-0.60;99.90;;;;;;5055132;28;20198;-43
2022/12/09 01:53:26;;;;;;;22.30;14.00;;;-0.70;99.90;;;;;;5055331;28;20398;-44
2022/12/09 01:55:54;;;;;;;19.47;11.73;;;-0.60;99.90;;;;;;5038021;28;20503;-44
2022/12/09 01:58:20;;;;;;;21.33;13.17;;;-0.60;99.90;;;;;;5055140;28;20452;-43
2022/12/09 02:00:47;;;;;;;21.77;13.13;;;-0.60;99.90;;;;;;5037793;28;20930;-42
2022/12/09 02:03:12;;;;;;;20.37;13.13;;;-0.70;99.90;;;;;;5055158;28;20186;-43
2022/12/09 02:05:38;;;;;;;21.77;12.80;;;-0.70;99.90;;;;;;5055133;28;20476;-42
2022/12/09 02:08:16;;;;;;;20.80;13.40;;;-0.70;99.90;;;;;;5055038;28;20681;-43
2022/12/09 02:11:19;;;;;;;23.00;13.20;;;-0.70;99.90;;;;;;5037043;28;20484;-41
2022/12/09 02:14:25;;;;;;;21.57;13.23;;;-0.70;99.90;;;;;;5004398;28;20863;-44
2022/12/09 02:17:39;;;;;;;21.90;12.67;;;-0.60;99.90;;;;;;5053512;28;20899;-41
2022/12/09 02:20:18;;;;;;;19.80;13.43;;;-0.60;99.90;;;;;;5012788;28;20484;-42
2022/12/09 02:23:06;;;;;;;21.00;14.03;;;-0.60;99.90;;;;;;5012809;28;20418;-43
2022/12/09 02:25:48;;;;;;;20.40;13.20;;;-0.60;99.90;;;;;;5044515;28;20554;-43
2022/12/09 02:28:50;;;;;;;21.23;13.17;;;-0.60;99.90;;;;;;5054616;28;20432;-43
2022/12/09 02:32:03;;;;;;;22.60;13.70;;;-0.60;99.90;;;;;;5054892;28;20404;-43
2022/12/09 02:34:32;;;;;;;22.63;13.00;;;-0.60;99.90;;;;;;5027750;28;20468;-40
2022/12/09 02:37:11;;;;;;;23.13;13.93;;;-0.60;99.90;;;;;;5053246;28;20516;-43
2022/12/09 02:40:10;;;;;;;22.97;13.40;;;-0.60;99.90;;;;;;5054218;28;20437;-42
2022/12/09 02:42:37;;;;;;;24.37;13.10;;;-0.60;99.90;;;;;;5053205;28;20422;-42
2022/12/09 02:45:06;;;;;;;21.13;12.83;;;-0.60;99.90;;;;;;5054426;28;20752;-44
2022/12/09 02:47:37;;;;;;;21.33;13.43;;;-0.60;99.90;;;;;;5054198;28;20907;-43
2022/12/09 02:50:07;;;;;;;27.67;13.40;;;-0.60;99.90;;;;;;5054251;28;20477;-43
2022/12/09 02:52:35;;;;;;;22.63;12.90;;;-0.60;99.90;;;;;;5054775;28;20406;-42
2022/12/09 02:55:03;;;;;;;23.80;13.40;;;-0.60;99.90;;;;;;5054710;28;20510;-45
2022/12/09 02:57:31;;;;;;;20.30;13.60;;;-0.60;99.90;;;;;;5054441;28;20420;-42
2022/12/09 02:59:56;;;;;;;25.20;15.03;;;-0.60;99.90;;;;;;5054462;28;20430;-44
2022/12/09 03:02:26;;;;;;;27.20;14.63;;;-0.60;99.90;;;;;;5053019;28;20959;-42
2022/12/09 03:05:32;;;;;;;23.27;14.20;;;-0.60;99.90;;;;;;5053624;28;20195;-42
2022/12/09 03:08:03;;;;;;;24.97;15.53;;;-0.50;99.90;;;;;;5039677;28;20487;-44
2022/12/09 03:10:40;;;;;;;25.50;14.73;;;-0.50;99.90;;;;;;5059815;28;20465;-44
2022/12/09 03:13:17;;;;;;;26.17;15.17;;;-0.40;99.90;;;;;;5065712;28;20415;-44
2022/12/09 03:15:48;;;;;;;27.67;15.00;;;-0.40;99.90;;;;;;5054800;28;20493;-44
2022/12/09 03:18:18;;;;;;;25.07;14.77;;;-0.40;99.90;;;;;;5055017;28;20405;-44
2022/12/09 03:20:46;;;;;;;24.13;14.20;;;-0.40;99.90;;;;;;5053970;28;20416;-43
2022/12/09 03:23:14;;;;;;;25.47;14.30;;;-0.40;99.90;;;;;;5053753;28;20412;-43
2022/12/09 03:25:44;;;;;;;26.30;15.10;;;-0.40;99.90;;;;;;5053845;28;20471;-43
2022/12/09 03:28:21;;;;;;;24.80;14.13;;;-0.40;99.90;;;;;;5053450;28;20424;-43
2022/12/09 03:30:48;;;;;;;24.30;14.97;;;-0.40;99.90;;;;;;5052333;28;20415;-45
2022/12/09 03:33:17;;;;;;;28.80;15.70;;;-0.40;99.90;;;;;;5052023;28;20498;-44
2022/12/09 03:35:51;;;;;;;22.53;13.33;;;-0.40;99.90;;;;;;5052238;28;20422;-44
2022/12/09 03:38:20;;;;;;;23.47;14.53;;;-0.40;99.90;;;;;;5035565;28;20425;-44
2022/12/09 03:40:50;;;;;;;23.47;14.80;;;-0.40;99.90;;;;;;5036660;28;20412;-42
2022/12/09 03:43:26;;;;;;;29.90;15.77;;;-0.40;99.90;;;;;;5053594;28;20424;-44
2022/12/09 03:45:56;;;;;;;21.20;13.17;;;-0.50;99.90;;;;;;5035640;28;20904;-45
2022/12/09 03:48:23;;;;;;;23.37;13.83;;;-0.40;99.90;;;;;;5053874;28;20416;-42
2022/12/09 03:51:04;;;;;;;28.13;13.70;;;-0.50;99.90;;;;;;5035519;28;20442;-41
2022/12/09 03:53:43;;;;;;;25.37;14.70;;;-0.50;99.90;;;;;;5059334;28;20399;-43
2022/12/09 03:56:18;;;;;;;24.23;13.57;;;-0.60;99.90;;;;;;5060124;28;20826;-40
2022/12/09 03:58:46;;;;;;;24.63;15.13;;;-0.60;99.90;;;;;;5059858;28;20461;-43
2022/12/09 04:01:13;;;;;;;22.37;13.77;;;-0.70;99.90;;;;;;5060145;28;20786;-42
2022/12/09 04:03:38;;;;;;;22.60;13.70;;;-0.70;99.90;;;;;;5060199;28;20501;-44
2022/12/09 04:06:04;;;;;;;25.30;14.93;;;-0.80;99.90;;;;;;5041629;28;20541;-44
2022/12/09 04:08:30;;;;;;;23.67;14.23;;;-0.80;99.90;;;;;;5059745;28;20198;-44
2022/12/09 04:10:56;;;;;;;22.83;14.07;;;-0.80;99.90;;;;;;5058565;28;20544;-42
2022/12/09 04:13:21;;;;;;;23.10;13.47;;;-0.80;99.90;;;;;;5059954;28;20251;-41
2022/12/09 04:15:47;;;;;;;23.77;13.70;;;-0.90;99.90;;;;;;5059598;28;20543;-42
2022/12/09 04:18:13;;;;;;;26.70;14.13;;;-0.90;99.90;;;;;;5060688;28;20184;-42
2022/12/09 04:20:38;;;;;;;24.03;13.17;;;-1.00;99.90;;;;;;5059629;28;20179;-43
2022/12/09 04:23:04;;;;;;;18.90;12.43;;;-1.10;99.90;;;;;;5059861;28;20184;-42
2022/12/09 04:25:30;;;;;;;19.93;12.97;;;-1.10;99.90;;;;;;5059956;28;20212;-43
2022/12/09 04:27:56;;;;;;;22.17;13.27;;;-1.20;99.90;;;;;;5041664;28;20586;-45
2022/12/09 04:30:21;;;;;;;20.73;12.80;;;-1.20;99.90;;;;;;5059385;28;20509;-43
2022/12/09 04:32:47;;;;;;;22.27;12.17;;;-1.20;99.90;;;;;;5059735;28;20195;-41
2022/12/09 04:35:13;;;;;;;20.57;12.67;;;-1.20;99.90;;;;;;5059766;28;20533;-42
2022/12/09 04:37:38;;;;;;;20.57;13.10;;;-1.30;99.90;;;;;;5059396;28;20640;-42
2022/12/09 04:40:05;;;;;;;20.60;13.07;;;-1.30;99.90;;;;;;5059511;28;20661;-43
2022/12/09 04:42:31;;;;;;;21.47;13.27;;;-1.30;99.90;;;;;;5059783;28;20187;-44
2022/12/09 04:44:57;;;;;;;21.43;13.73;;;-1.30;99.90;;;;;;5059310;28;20407;-43
2022/12/09 04:47:22;;;;;;;21.33;13.50;;;-1.30;99.90;;;;;;5059564;28;20208;-43
2022/12/09 04:49:48;;;;;;;23.07;13.67;;;-1.30;99.90;;;;;;5041343;28;20204;-43
2022/12/09 04:52:16;;;;;;;23.27;13.50;;;-1.20;99.90;;;;;;5042086;28;20173;-41
2022/12/09 04:54:42;;;;;;;25.50;14.50;;;-1.20;99.90;;;;;;5059419;28;20539;-45
2022/12/09 04:57:07;;;;;;;23.00;13.77;;;-1.20;99.90;;;;;;5059261;28;20903;-47
2022/12/09 04:59:33;;;;;;;27.07;13.93;;;-1.20;99.90;;;;;;5059349;28;20300;-48
2022/12/09 05:01:59;;;;;;;25.23;14.90;;;-1.20;99.90;;;;;;5059201;28;20636;-47
2022/12/09 05:04:24;;;;;;;26.13;15.03;;;-1.10;99.90;;;;;;5055904;28;20184;-48
2022/12/09 05:06:51;;;;;;;24.47;14.70;;;-1.00;99.90;;;;;;5056411;28;20254;-47
2022/12/09 05:09:16;;;;;;;24.50;14.73;;;-0.90;99.90;;;;;;5056143;28;20252;-48
2022/12/09 05:11:42;;;;;;;29.30;15.53;;;-0.90;99.90;;;;;;5056460;28;20895;-47
2022/12/09 05:14:07;;;;;;;29.97;15.17;;;-0.90;99.90;;;;;;5055895;28;20203;-48
2022/12/09 05:16:33;;;;;;;26.87;16.33;;;-0.80;99.90;;;;;;5037928;28;20216;-48
2022/12/09 05:18:59;;;;;;;27.60;16.07;;;-0.80;99.90;;;;;;5037923;28;20200;-47
2022/12/09 05:21:25;;;;;;;26.17;15.97;;;-0.70;99.90;;;;;;5056068;28;20188;-48
2022/12/09 05:23:50;;;;;;;28.30;16.33;;;-0.70;99.90;;;;;;5056336;28;20192;-46
2022/12/09 05:26:20;;;;;;;28.13;16.60;;;-0.70;99.90;;;;;;5055854;28;20215;-48
2022/12/09 05:28:46;;;;;;;27.93;16.63;;;-0.60;99.90;;;;;;5056452;28;20196;-47
2022/12/09 05:31:15;;;;;;;26.03;15.90;;;-0.60;99.90;;;;;;5056286;28;20430;-47
2022/12/09 05:33:42;;;;;;;28.30;16.30;;;-0.60;99.90;;;;;;5055992;28;20176;-48
2022/12/09 05:36:12;;;;;;;31.77;17.10;;;-0.50;99.90;;;;;;5056510;28;20473;-46
2022/12/09 05:38:39;;;;;;;33.07;17.17;;;-0.50;99.90;;;;;;5055613;28;20439;-46
2022/12/09 05:41:05;;;;;;;28.97;15.60;;;-0.40;99.90;;;;;;5055917;28;20420;-47
2022/12/09 05:43:32;;;;;;;36.17;16.67;;;-0.40;99.90;;;;;;5056116;28;20549;-47
2022/12/09 05:45:57;;;;;;;29.47;16.43;;;-0.30;99.90;;;;;;5055407;28;20478;-46
2022/12/09 05:48:23;;;;;;;28.43;16.53;;;-0.30;99.90;;;;;;5055872;28;20419;-46
2022/12/09 05:51:10;;;;;;;26.93;16.97;;;-0.30;99.90;;;;;;5055874;28;20561;-46
2022/12/09 05:53:53;;;;;;;29.03;15.80;;;-0.30;99.90;;;;;;5056903;28;20202;-45
2022/12/09 05:56:20;;;;;;;28.30;15.83;;;-0.30;99.90;;;;;;5061924;28;20406;-48
2022/12/09 05:58:46;;;;;;;25.10;14.83;;;-0.20;99.90;;;;;;5071568;28;20431;-48
2022/12/09 06:01:13;;;;;;;31.77;15.93;;;-0.20;99.90;;;;;;5060311;28;20485;-46
2022/12/09 06:03:39;;;;;;;29.20;16.27;;;-0.20;99.90;;;;;;5056671;28;20637;-47
2022/12/09 06:06:10;;;;;;;28.67;16.67;;;-0.20;99.90;;;;;;5057025;28;20459;-46
2022/12/09 06:08:37;;;;;;;31.03;15.97;;;-0.10;99.90;;;;;;5037184;28;20516;-46
2022/12/09 06:11:03;;;;;;;31.73;15.83;;;-0.10;99.90;;;;;;5056268;28;20418;-47
2022/12/09 06:13:29;;;;;;;23.80;15.17;;;-0.10;99.90;;;;;;5057357;28;20775;-46
2022/12/09 06:15:54;;;;;;;26.27;15.37;;;-0.10;99.90;;;;;;5055040;28;20424;-48
2022/12/09 06:18:20;;;;;;;26.30;15.20;;;-0.10;99.90;;;;;;5055591;28;20641;-46
2022/12/09 06:20:45;;;;;;;29.97;16.37;;;-0.10;99.90;;;;;;5054762;28;20524;-47
2022/12/09 06:23:11;;;;;;;27.40;15.53;;;0.00;99.90;;;;;;5054847;28;20181;-47
2022/12/09 06:25:41;;;;;;;31.90;16.33;;;0.00;99.90;;;;;;5067548;22;20184;-46
2022/12/09 06:28:07;;;;;;;27.47;15.70;;;0.00;99.90;;;;;;5034864;28;20192;-46
2022/12/09 06:30:32;;;;;;;25.50;14.53;;;0.00;99.90;;;;;;5035209;28;20414;-46
2022/12/09 06:32:59;;;;;;;24.93;14.17;;;0.10;99.90;;;;;;5034645;28;20177;-46
2022/12/09 06:35:25;;;;;;;24.43;14.13;;;0.00;99.90;;;;;;5034936;28;20185;-45
2022/12/09 06:37:52;;;;;;;29.47;15.73;;;0.10;99.90;;;;;;5034983;28;20421;-46
2022/12/09 06:40:20;;;;;;;24.60;14.53;;;0.00;99.90;;;;;;5017117;28;20437;-46
2022/12/09 06:42:49;;;;;;;22.70;14.20;;;0.10;99.90;;;;;;5034587;28;20413;-45
2022/12/09 06:45:15;;;;;;;28.30;15.10;;;0.10;99.90;;;;;;5034432;28;20772;-48
2022/12/09 06:47:41;;;;;;;22.37;14.47;;;0.10;99.90;;;;;;5034349;28;20418;-45
2022/12/09 06:50:08;;;;;;;25.10;14.07;;;0.10;99.90;;;;;;5034048;28;21066;-46
2022/12/09 06:52:34;;;;;;;31.67;16.37;;;0.10;99.90;;;;;;5033001;28;20262;-45
2022/12/09 06:55:00;;;;;;;25.80;15.20;;;0.10;99.90;;;;;;5034105;28;20422;-46
2022/12/09 06:57:25;;;;;;;25.47;15.17;;;0.10;99.90;;;;;;5034164;28;20414;-47
2022/12/09 06:59:51;;;;;;;30.47;15.60;;;0.10;99.90;;;;;;5034624;28;20202;-47
2022/12/09 07:02:16;;;;;;;27.00;15.33;;;0.20;99.90;;;;;;5034520;28;20263;-48
2022/12/09 07:04:42;;;;;;;27.37;15.50;;;0.10;99.90;;;;;;5034903;28;20205;-46
2022/12/09 07:07:09;;;;;;;26.57;15.40;;;0.20;99.90;;;;;;5034679;28;20199;-48
2022/12/09 07:09:35;;;;;;;22.43;14.37;;;0.20;99.90;;;;;;5035044;28;20294;-47
2022/12/09 07:12:01;;;;;;;27.37;15.40;;;0.20;99.90;;;;;;5034287;28;20444;-46
2022/12/09 07:14:26;;;;;;;23.50;14.27;;;0.20;99.90;;;;;;5034487;28;20721;-46
2022/12/09 07:16:52;;;;;;;26.83;14.57;;;0.20;99.90;;;;;;5034959;28;20179;-46
2022/12/09 07:19:19;;;;;;;29.83;15.67;;;0.20;99.90;;;;;;5034974;28;20613;-46
2022/12/09 07:21:45;;;;;;;28.77;16.87;;;0.20;99.90;;;;;;5034499;28;20549;-46
2022/12/09 07:24:11;;;;;;;29.37;15.93;;;0.20;99.90;;;;;;5034129;28;20439;-47
2022/12/09 07:26:37;;;;;;;33.10;15.63;;;0.30;99.90;;;;;;5042646;28;20211;-46
2022/12/09 07:29:04;;;;;;;24.80;14.80;;;0.30;99.90;;;;;;5054754;28;20430;-47
2022/12/09 07:31:30;;;;;;;31.03;15.17;;;0.30;99.90;;;;;;5055019;28;20415;-46
2022/12/09 07:33:57;;;;;;;32.40;16.00;;;0.30;99.90;;;;;;5054838;28;20429;-47
2022/12/09 07:36:25;;;;;;;29.47;14.73;;;0.30;99.90;;;;;;5055165;28;20187;-47
2022/12/09 07:38:59;;;;;;;24.43;14.30;;;0.40;99.90;;;;;;5055001;28;20451;-46
2022/12/09 07:41:25;;;;;;;24.23;13.37;;;0.40;99.90;;;;;;5055119;28;20424;-47
2022/12/09 07:43:50;;;;;;;24.60;14.27;;;0.40;99.90;;;;;;5036968;28;20448;-46
2022/12/09 07:46:18;;;;;;;26.53;15.13;;;0.40;99.90;;;;;;5054698;28;20197;-47
2022/12/09 07:48:45;;;;;;;24.37;15.60;;;0.40;99.90;;;;;;5054576;28;20678;-47
2022/12/09 07:51:11;;;;;;;28.30;16.10;;;0.40;99.90;;;;;;5054997;28;20417;-46
2022/12/09 07:53:37;;;;;;;26.27;15.53;;;0.40;99.90;;;;;;5055027;28;20453;-46
2022/12/09 07:56:05;;;;;;;30.77;16.00;;;0.40;99.90;;;;;;5054605;28;20433;-45
2022/12/09 07:58:31;;;;;;;28.87;16.43;;;0.50;99.90;;;;;;5054566;28;20703;-47
2022/12/09 08:00:56;;;;;;;29.73;18.17;;;0.50;99.90;;;;;;5055163;28;20424;-47
2022/12/09 08:03:22;;;;;;;31.03;17.53;;;0.50;99.90;;;;;;5054882;28;20529;-48
2022/12/09 08:05:51;;;;;;;30.40;17.13;;;0.50;99.90;;;;;;5055141;28;20291;-47
2022/12/09 08:08:17;;;;;;;36.80;19.73;;;0.60;99.90;;;;;;5054660;28;20230;-47
2022/12/09 08:10:45;;;;;;;30.87;16.00;;;0.60;99.90;;;;;;5036707;28;20413;-48
2022/12/09 08:13:10;;;;;;;27.17;15.57;;;0.60;99.90;;;;;;5055505;28;20223;-45
2022/12/09 08:15:36;;;;;;;27.80;14.97;;;0.70;99.90;;;;;;5055948;28;20452;-45
2022/12/09 08:18:01;;;;;;;29.73;16.37;;;0.70;99.90;;;;;;5056467;28;20193;-47
2022/12/09 08:20:28;;;;;;;34.00;16.67;;;0.70;99.90;;;;;;5056211;28;20203;-46
2022/12/09 08:22:53;;;;;;;29.60;16.03;;;0.70;99.90;;;;;;5054591;28;20248;-45
2022/12/09 08:25:19;;;;;;;24.10;14.60;;;0.70;99.90;;;;;;5055042;28;20912;-45
2022/12/09 08:27:44;;;;;;;21.30;13.00;;;0.70;99.90;;;;;;5054929;28;20202;-46
2022/12/09 08:30:10;;;;;;;26.10;14.13;;;0.80;99.90;;;;;;5055601;28;20333;-46
2022/12/09 08:32:36;;;;;;;23.40;13.43;;;0.80;99.90;;;;;;5054965;28;20213;-46
2022/12/09 08:35:02;;;;;;;26.60;14.27;;;0.80;99.90;;;;;;5054876;28;20182;-45
2022/12/09 08:37:27;;;;;;;23.57;13.80;;;0.80;99.90;;;;;;5055190;28;20179;-46
2022/12/09 08:39:53;;;;;;;30.70;14.83;;;0.80;99.90;;;;;;5058511;28;20248;-47
2022/12/09 08:42:18;;;;;;;24.83;14.63;;;0.80;99.90;;;;;;5059508;28;20265;-45
2022/12/09 08:44:44;;;;;;;28.40;15.93;;;0.80;99.90;;;;;;5059706;28;20229;-46
2022/12/09 08:47:10;;;;;;;33.57;16.77;;;0.80;99.90;;;;;;5058729;28;20294;-46
2022/12/09 08:49:35;;;;;;;31.90;16.50;;;0.90;99.90;;;;;;5059127;28;20531;-47
2022/12/09 08:52:01;;;;;;;36.70;17.27;;;0.90;99.90;;;;;;5058975;28;20644;-44
2022/12/09 08:54:27;;;;;;;34.70;16.63;;;0.90;99.90;;;;;;5059131;28;20186;-46
2022/12/09 08:56:54;;;;;;;37.67;17.40;;;1.00;99.90;;;;;;5058711;28;20644;-46
2022/12/09 08:59:20;;;;;;;28.67;16.40;;;1.00;99.90;;;;;;5059038;28;20261;-47
2022/12/09 09:01:46;;;;;;;31.63;16.40;;;1.00;99.90;;;;;;5058964;28;20974;-46
2022/12/09 09:04:15;;;;;;;26.30;16.83;;;1.10;99.90;;;;;;5059667;28;20431;-46
2022/12/09 09:06:43;;;;;;;33.23;16.13;;;1.10;99.90;;;;;;5058625;28;20506;-46
2022/12/09 09:09:10;;;;;;;29.30;16.50;;;1.10;99.90;;;;;;5058687;28;20469;-46
2022/12/09 09:11:37;;;;;;;33.67;18.47;;;1.20;99.90;;;;;;5059299;28;20417;-46
2022/12/09 09:14:04;;;;;;;32.03;16.63;;;1.30;99.90;;;;;;5058343;28;20773;-47
2022/12/09 09:16:30;;;;;;;38.33;17.70;;;1.30;99.90;;;;;;5058414;28;20409;-47
2022/12/09 09:18:56;;;;;;;36.53;16.50;;;1.30;99.90;;;;;;5058595;28;20433;-46
2022/12/09 09:21:23;;;;;;;28.40;16.00;;;1.40;99.90;;;;;;5058435;28;20242;-46
2022/12/09 09:23:49;;;;;;;34.23;17.30;;;1.40;99.90;;;;;;5058717;28;20772;-47
2022/12/09 09:26:17;;;;;;;39.13;19.70;;;1.50;99.90;;;;;;5058010;28;20473;-46
2022/12/09 09:28:43;;;;;;;42.27;20.43;;;1.50;99.90;;;;;;5040407;28;20238;-47
2022/12/09 09:31:13;;;;;;;36.43;19.50;;;1.50;99.90;;;;;;5058177;28;20186;-47
2022/12/09 09:33:39;;;;;;;39.50;21.27;;;1.50;99.90;;;;;;5057766;28;20426;-46
2022/12/09 09:36:06;;;;;;;37.83;20.03;;;1.60;99.90;;;;;;5057975;28;20183;-47
2022/12/09 09:38:32;;;;;;;43.37;21.90;;;1.60;99.90;;;;;;5058059;28;20203;-48
2022/12/09 09:41:00;;;;;;;46.97;21.97;;;1.60;99.90;;;;;;5058105;28;20191;-46
2022/12/09 09:43:30;;;;;;;48.43;24.07;;;1.60;99.90;;;;;;5056733;28;20187;-40
2022/12/09 09:45:58;;;;;;;51.00;24.00;;;1.60;99.90;;;;;;5055141;28;20300;-43
2022/12/09 09:48:27;;;;;;;41.93;21.40;;;1.70;99.90;;;;;;5055094;28;20966;-40
2022/12/09 09:51:04;;;;;;;39.10;21.50;;;1.80;99.90;;;;;;5054424;28;20176;-43
2022/12/09 09:53:34;;;;;;;42.07;19.87;;;1.80;99.90;;;;;;5055113;28;20391;-40
2022/12/09 09:56:18;;;;;;;39.50;21.10;;;1.90;99.90;;;;;;5055389;28;20618;-42
2022/12/09 09:59:16;;;;;;;43.67;21.90;;;2.00;99.90;;;;;;5055144;28;20616;-42
2022/12/09 10:01:49;;;;;;;50.87;21.67;;;2.20;99.90;;;;;;5054881;28;20445;-41
2022/12/09 10:04:31;;;;;;;37.50;21.10;;;2.20;99.90;;;;;;5055218;28;20180;-41
2022/12/09 10:07:11;;;;;;;49.93;22.37;;;2.30;99.90;;;;;;5054770;28;20196;-38
2022/12/09 10:09:56;;;;;;;45.20;21.13;;;2.30;99.90;;;;;;5055026;28;20201;-42
2022/12/09 10:12:45;;;;;;;45.80;22.63;;;2.40;99.90;;;;;;5054861;28;20387;-41
2022/12/09 10:15:14;;;;;;;43.73;20.50;;;2.40;99.90;;;;;;5054842;28;20215;-40
2022/12/09 10:17:43;;;;;;;40.83;20.43;;;2.40;99.90;;;;;;5054660;28;20268;-42
2022/12/09 10:20:26;;;;;;;40.23;19.60;;;2.50;99.90;;;;;;5054429;28;20706;-43
2022/12/09 10:22:59;;;;;;;41.17;20.40;;;2.50;99.90;;;;;;5036890;28;20210;-45
2022/12/09 10:25:28;;;;;;;45.83;20.67;;;2.60;99.90;;;;;;5054755;28;20191;-42
2022/12/09 10:28:12;;;;;;;40.97;21.77;;;2.60;99.90;;;;;;5054374;28;20203;-42
2022/12/09 10:30:38;;;;;;;34.67;18.67;;;2.70;99.90;;;;;;5054787;28;20216;-41
2022/12/09 10:33:04;;;;;;;37.07;18.77;;;2.80;99.90;;;;;;5054340;28;20577;-43
2022/12/09 10:35:31;;;;;;;34.47;15.27;;;2.70;99.90;;;;;;5054302;28;20184;-42
2022/12/09 10:38:09;;;;;;;26.27;14.07;;;2.80;99.90;;;;;;5054522;28;20182;-43
2022/12/09 10:40:43;;;;;;;23.17;13.83;;;2.70;99.90;;;;;;5036424;28;20172;-43
2022/12/09 10:43:34;;;;;;;26.80;15.63;;;2.80;99.90;;;;;;5054450;28;20186;-41
2022/12/09 10:46:02;;;;;;;29.80;14.43;;;2.80;99.90;;;;;;5036153;28;20236;-42
2022/12/09 10:48:54;;;;;;;26.87;14.97;;;2.90;99.90;;;;;;5054237;28;20235;-43
2022/12/09 10:51:30;;;;;;;26.13;14.37;;;3.00;99.90;;;;;;5045455;28;20203;-42
2022/12/09 10:54:11;;;;;;;29.43;15.40;;;3.10;99.90;;;;;;5054271;28;20627;-41
2022/12/09 10:56:58;;;;;;;28.93;15.50;;;3.10;99.90;;;;;;5036070;28;20177;-43
2022/12/09 10:59:28;;;;;;;32.90;16.43;;;3.20;99.90;;;;;;5053751;28;20211;-41
2022/12/09 11:01:55;;;;;;;32.53;16.97;;;3.30;99.90;;;;;;5035285;28;20575;-41
2022/12/09 11:04:38;;;;;;;28.07;16.43;;;3.50;99.90;;;;;;5053783;28;20546;-42
2022/12/09 11:07:18;;;;;;;29.43;16.90;;;3.60;99.90;;;;;;5053993;28;20273;-43
2022/12/09 11:09:47;;;;;;;27.63;16.67;;;3.70;99.90;;;;;;5036731;28;20218;-43
2022/12/09 11:12:32;;;;;;;27.83;16.33;;;3.70;99.90;;;;;;5036530;28;20234;-43
2022/12/09 11:15:22;;;;;;;30.30;18.23;;;3.80;99.90;;;;;;5053681;28;20187;-44
2022/12/09 11:18:13;;;;;;;31.40;17.77;;;3.80;99.90;;;;;;5053816;28;20176;-42
2022/12/09 11:20:39;;;;;;;31.97;17.47;;;3.80;99.90;;;;;;5053577;28;20172;-43
2022/12/09 11:23:16;;;;;;;33.10;15.83;;;3.80;99.90;;;;;;5053594;28;20588;-44
2022/12/09 11:25:57;;;;;;;25.00;15.27;;;3.70;99.90;;;;;;5053632;28;20286;-43
2022/12/09 11:28:27;;;;;;;33.57;18.10;;;3.70;99.90;;;;;;5053423;28;20167;-44
2022/12/09 11:31:06;;;;;;;33.97;16.83;;;3.60;99.90;;;;;;5053585;28;20168;-41
2022/12/09 11:33:35;;;;;;;26.50;16.30;;;3.50;99.90;;;;;;5053622;28;20171;-44
2022/12/09 11:36:09;;;;;;;26.30;15.33;;;3.50;99.90;;;;;;5035726;28;20206;-41
2022/12/09 11:38:44;;;;;;;27.07;16.43;;;3.50;99.90;;;;;;5053350;28;20196;-40
2022/12/09 11:44:28;;;;;;;30.90;14.53;;;3.50;99.90;;;;;;5053619;28;20237;-43
2022/12/09 11:47:20;;;;;;;43.73;24.70;;;3.50;99.90;;;;;;5053777;28;20215;-43
2022/12/09 11:49:56;;;;;;;30.20;15.60;;;3.60;99.90;;;;;;5053345;28;20196;-43
2022/12/09 11:52:26;;;;;;;31.60;16.00;;;3.60;99.90;;;;;;5053586;28;20168;-42
2022/12/09 11:55:15;;;;;;;24.47;12.80;;;3.60;99.90;;;;;;5053541;28;20169;-43
2022/12/09 11:57:52;;;;;;;25.00;14.17;;;3.60;99.90;;;;;;5035274;28;20174;-43
2022/12/09 12:00:20;;;;;;;24.47;15.10;;;3.70;99.90;;;;;;5053045;28;20204;-42
2022/12/09 12:03:23;;;;;;;26.13;13.67;;;3.80;99.90;;;;;;5053376;28;20314;-41
2022/12/09 12:05:52;;;;;;;22.60;13.57;;;3.80;99.90;;;;;;5052966;28;20278;-39
2022/12/09 12:08:28;;;;;;;23.17;14.10;;;4.00;99.90;;;;;;5052842;28;20192;-43
2022/12/09 12:11:10;;;;;;;23.80;14.67;;;4.00;99.90;;;;;;5035225;28;20180;-43
2022/12/09 12:13:43;;;;;;;21.60;12.90;;;4.00;99.90;;;;;;5054730;28;20543;-41
2022/12/09 12:16:18;;;;;;;22.03;12.40;;;4.00;99.90;;;;;;5057575;28;20180;-40
2022/12/09 12:19:03;;;;;;;26.77;12.33;;;3.90;99.90;;;;;;5057035;28;20679;-40
2022/12/09 12:21:47;;;;;;;27.60;12.37;;;3.80;99.90;;;;;;5056885;28;20169;-41
2022/12/09 12:24:34;;;;;;;18.17;11.47;;;3.80;99.90;;;;;;5039527;28;20197;-42
2022/12/09 12:27:21;;;;;;;24.33;13.07;;;3.80;99.90;;;;;;5056770;28;20229;-41
2022/12/09 12:30:11;;;;;;;29.23;12.73;;;3.80;99.90;;;;;;5056879;28;20754;-42
2022/12/09 12:33:12;;;;;;;25.33;13.43;;;3.80;99.90;;;;;;5056831;28;20591;-40
2022/12/09 12:36:15;;;;;;;25.63;12.40;;;3.80;99.90;;;;;;5056857;28;20230;-42
2022/12/09 12:39:15;;;;;;;22.70;12.63;;;3.80;99.90;;;;;;5056499;28;20579;-41
2022/12/09 12:41:59;;;;;;;23.10;11.90;;;3.80;99.90;;;;;;5057106;28;20175;-44
2022/12/09 12:47:59;;;;;;;27.83;11.97;;;3.80;99.90;;;;;;5056695;28;20264;-43
2022/12/09 12:50:45;;;;;;;19.67;13.90;;;3.80;99.90;;;;;;5056323;28;20211;-43
2022/12/09 12:53:14;;;;;;;20.53;11.50;;;3.80;99.90;;;;;;5056330;28;20258;-43
2022/12/09 12:55:48;;;;;;;16.90;10.77;;;3.90;99.90;;;;;;5038254;28;20661;-42
2022/12/09 12:58:19;;;;;;;17.93;9.43;;;3.90;99.90;;;;;;5056413;28;20164;-41